Time,TemperatureF,DewpointF,PressureIn,WindDirection,WindDirectionDegrees,WindSpeedMPH,WindSpeedGustMPH,Humidity,HourlyPrecipIn,Conditions,Clouds,dailyrainin,SolarRadiationWatts/m^2,SoftwareType,DateUTC
2013-06-22 11:02:00,82.0,73.0,30.12,SSE,162,3.0,-999.0,75,-99.99,,,-99.99,490.000000,,2013-06-22 15:02:00,
2013-06-22 11:12:00,83.0,74.0,30.12,SSE,148,3.0,-999.0,75,-99.99,,,-99.99,816.000000,,2013-06-22 15:12:00,
2013-06-22 11:34:00,83.0,73.0,30.12,South,189,2.0,-999.0,71,-99.99,,,-99.99,376.000000,,2013-06-22 15:34:00,
2013-06-22 11:43:00,83.0,73.0,30.12,SW,215,2.0,-999.0,72,-99.99,,,-99.99,742.000000,,2013-06-22 15:43:00,
2013-06-22 11:53:00,84.0,73.0,30.12,South,188,2.0,-999.0,70,-99.99,,,-99.99,,,2013-06-22 15:53:00,
2013-06-22 12:02:00,84.0,73.0,30.12,South,188,2.0,-999.0,70,-99.99,,,-99.99,,,2013-06-22 16:02:00,
2013-06-22 12:12:00,83.0,72.0,30.12,SSE,155,2.0,-999.0,70,-99.99,,,-99.99,186.000000,,2013-06-22 16:12:00,
2013-06-22 12:22:00,83.0,73.0,30.12,ESE,114,1.0,-999.0,71,-99.99,,,-99.99,197.000000,,2013-06-22 16:22:00,
2013-06-22 12:34:00,83.0,73.0,30.12,ESE,114,1.0,-999.0,71,-99.99,,,-99.99,197.000000,,2013-06-22 16:34:00,
2013-06-22 12:43:00,84.0,74.0,30.12,East,90,4.0,-999.0,71,-99.99,,,-99.99,,,2013-06-22 16:43:00,
2013-06-22 12:52:00,85.0,72.0,30.11,ESE,114,4.0,-999.0,65,-99.99,,,-99.99,,,2013-06-22 16:52:00,
2013-06-22 13:02:00,85.0,72.0,30.11,ESE,114,4.0,-999.0,65,-99.99,,,-99.99,,,2013-06-22 17:02:00,
2013-06-22 13:11:00,86.0,73.0,30.11,South,182,3.0,-999.0,65,-99.99,,,-99.99,,,2013-06-22 17:11:00,
2013-06-22 13:22:00,86.0,71.0,30.11,SE,131,3.0,-999.0,62,-99.99,,,-99.99,969.000000,,2013-06-22 17:22:00,
2013-06-22 13:34:00,86.0,71.0,30.11,SE,131,3.0,-999.0,62,-99.99,,,-99.99,969.000000,,2013-06-22 17:34:00,
2013-06-22 13:43:00,86.0,72.0,30.11,South,175,3.0,-999.0,63,-99.99,,,-99.99,926.000000,,2013-06-22 17:43:00,
2013-06-22 13:52:00,87.0,72.0,30.11,South,184,2.0,-999.0,62,-99.99,,,-99.99,,,2013-06-22 17:52:00,
2013-06-22 14:02:00,87.0,72.0,30.11,South,184,2.0,-999.0,62,-99.99,,,-99.99,,,2013-06-22 18:02:00,
2013-06-22 14:12:00,88.0,71.0,30.10,SSE,152,2.0,-999.0,58,-99.99,,,-99.99,,,2013-06-22 18:12:00,
2013-06-22 14:23:00,88.0,72.0,30.09,SE,132,2.0,-999.0,59,-99.99,,,-99.99,,,2013-06-22 18:23:00,
2013-06-22 14:34:00,88.0,72.0,30.09,SE,132,2.0,-999.0,59,-99.99,,,-99.99,,,2013-06-22 18:34:00,
2013-06-22 14:43:00,88.0,71.0,30.09,SE,131,3.0,-999.0,58,-99.99,,,-99.99,,,2013-06-22 18:43:00,
2013-06-22 14:52:00,88.0,71.0,30.09,SSE,157,3.0,-999.0,58,-99.99,,,-99.99,,,2013-06-22 18:52:00,
2013-06-22 15:01:00,88.0,71.0,30.09,SSE,157,3.0,-999.0,58,-99.99,,,-99.99,,,2013-06-22 19:01:00,
2013-06-22 15:11:00,88.0,69.0,30.08,SE,139,4.0,-999.0,54,-99.99,,,-99.99,976.000000,,2013-06-22 19:11:00,
2013-06-22 15:22:00,89.0,70.0,30.08,South,186,4.0,-999.0,54,-99.99,,,-99.99,954.000000,,2013-06-22 19:22:00,
2013-06-22 15:33:00,89.0,70.0,30.08,South,186,4.0,-999.0,54,-99.99,,,-99.99,954.000000,,2013-06-22 19:33:00,
2013-06-22 15:43:00,88.0,69.0,30.07,SSE,168,4.0,-999.0,54,-99.99,,,-99.99,844.000000,,2013-06-22 19:43:00,
2013-06-22 15:53:00,88.0,70.0,30.08,South,186,3.0,-999.0,56,-99.99,,,-99.99,742.000000,,2013-06-22 19:53:00,
2013-06-22 16:02:00,88.0,70.0,30.08,South,186,3.0,-999.0,56,-99.99,,,-99.99,742.000000,,2013-06-22 20:02:00,
2013-06-22 16:11:00,88.0,70.0,30.08,South,186,3.0,-999.0,56,-99.99,,,-99.99,742.000000,,2013-06-22 20:11:00,
2013-06-22 16:22:00,89.0,66.0,30.07,SE,138,3.0,-999.0,47,-99.99,,,-99.99,786.000000,,2013-06-22 20:22:00,
2013-06-22 16:33:00,89.0,66.0,30.07,SE,138,3.0,-999.0,47,-99.99,,,-99.99,786.000000,,2013-06-22 20:33:00,
2013-06-22 16:43:00,89.0,68.0,30.07,NNW,343,1.0,-999.0,50,-99.99,,,-99.99,142.000000,,2013-06-22 20:43:00,
2013-06-22 16:53:00,81.0,72.0,30.08,North,351,8.0,-999.0,74,-99.99,,,-99.99,91.000000,,2013-06-22 20:53:00,
2013-06-22 17:01:00,81.0,72.0,30.08,North,351,8.0,-999.0,74,-99.99,,,-99.99,91.000000,,2013-06-22 21:01:00,
2013-06-22 17:11:00,80.0,72.0,30.08,NW,315,8.0,-999.0,77,-99.99,,,-99.99,79.000000,,2013-06-22 21:11:00,
2013-06-22 17:22:00,79.0,72.0,30.08,NW,311,6.0,-999.0,79,-99.99,,,-99.99,69.000000,,2013-06-22 21:22:00,
2013-06-22 17:34:00,79.0,72.0,30.08,NW,311,6.0,-999.0,79,-99.99,,,-99.99,69.000000,,2013-06-22 21:34:00,
2013-06-22 17:43:00,78.0,72.0,30.09,NNW,330,7.0,-999.0,83,-99.99,,,-99.99,30.000000,,2013-06-22 21:43:00,
2013-06-22 17:53:00,77.0,72.0,30.08,WNW,284,3.0,-999.0,85,-99.99,,,-99.99,25.000000,,2013-06-22 21:53:00,
2013-06-22 18:02:00,77.0,72.0,30.08,WNW,284,3.0,-999.0,85,-99.99,,,-99.99,25.000000,,2013-06-22 22:02:00,
2013-06-22 18:12:00,76.0,72.0,30.07,WNW,287,4.0,-999.0,88,-99.99,,,-99.99,26.000000,,2013-06-22 22:12:00,
2013-06-22 18:23:00,76.0,73.0,30.07,WNW,302,3.0,-999.0,90,-99.99,,,-99.99,40.000000,,2013-06-22 22:23:00,
2013-06-22 18:33:00,76.0,73.0,30.07,WNW,302,3.0,-999.0,90,-99.99,,,-99.99,40.000000,,2013-06-22 22:33:00,
2013-06-22 18:43:00,76.0,73.0,30.07,NW,315,3.0,-999.0,89,-99.99,,,-99.99,35.000000,,2013-06-22 22:43:00,
2013-06-22 18:52:00,76.0,72.0,30.07,WNW,294,2.0,-999.0,88,-99.99,,,-99.99,54.000000,,2013-06-22 22:52:00,
2013-06-22 19:01:00,76.0,72.0,30.07,WNW,294,2.0,-999.0,88,-99.99,,,-99.99,54.000000,,2013-06-22 23:01:00,
2013-06-22 19:11:00,76.0,73.0,30.07,North,351,1.0,-999.0,89,-99.99,,,-99.99,39.000000,,2013-06-22 23:11:00,
2013-06-22 19:22:00,76.0,73.0,30.07,NNW,348,3.0,-999.0,89,-99.99,,,-99.99,47.000000,,2013-06-22 23:22:00,
2013-06-22 19:34:00,76.0,73.0,30.07,NNW,348,3.0,-999.0,89,-99.99,,,-99.99,47.000000,,2013-06-22 23:34:00,
2013-06-22 19:43:00,76.0,72.0,30.08,North,350,3.0,-999.0,88,-99.99,,,-99.99,44.000000,,2013-06-22 23:43:00,
2013-06-22 19:52:00,76.0,72.0,30.08,NNW,348,2.0,-999.0,87,-99.99,,,-99.99,30.000000,,2013-06-22 23:52:00,
2013-06-22 20:01:00,76.0,72.0,30.08,NNW,348,2.0,-999.0,87,-99.99,,,-99.99,30.000000,,2013-06-23 00:01:00,
2013-06-22 20:11:00,76.0,72.0,30.08,North,350,3.0,-999.0,88,-99.99,,,-99.99,21.000000,,2013-06-23 00:11:00,
2013-06-22 20:22:00,76.0,72.0,30.08,North,351,1.0,-999.0,88,-99.99,,,-99.99,12.000000,,2013-06-23 00:22:00,
2013-06-22 20:33:00,76.0,72.0,30.08,North,351,1.0,-999.0,88,-99.99,,,-99.99,12.000000,,2013-06-23 00:33:00,
2013-06-22 20:42:00,76.0,72.0,30.08,North,355,2.0,-999.0,87,-99.99,,,-99.99,11.000000,,2013-06-23 00:42:00,
2013-06-22 20:51:00,76.0,72.0,30.08,North,355,2.0,-999.0,86,-99.99,,,-99.99,0.000000,,2013-06-23 00:51:00,
2013-06-22 20:53:00,76.0,72.0,30.08,North,355,2.0,-999.0,87,-99.99,,,-99.99,11.000000,,2013-06-23 00:53:00,
2013-06-22 21:01:00,76.0,72.0,30.08,North,355,2.0,-999.0,87,-99.99,,,-99.99,11.000000,,2013-06-23 01:01:00,
2013-06-22 21:11:00,76.0,72.0,30.08,North,355,2.0,-999.0,86,-99.99,,,-99.99,0.000000,,2013-06-23 01:11:00,
2013-06-22 21:22:00,76.0,72.0,30.08,North,355,2.0,-999.0,86,-99.99,,,-99.99,0.000000,,2013-06-23 01:22:00,
2013-06-22 21:32:00,76.0,72.0,30.08,North,355,2.0,-999.0,86,-99.99,,,-99.99,0.000000,,2013-06-23 01:32:00,
2013-06-22 21:42:00,76.0,72.0,30.08,North,355,2.0,-999.0,86,-99.99,,,-99.99,0.000000,,2013-06-23 01:42:00,
2013-06-22 23:31:00,76.0,72.0,30.09,NNE,19,2.0,-999.0,87,-99.99,,,-99.99,0.000000,,2013-06-23 03:31:00,
2013-06-22 23:41:00,76.0,72.0,30.09,NNE,19,2.0,-999.0,87,-99.99,,,-99.99,0.000000,,2013-06-23 03:41:00,
2013-06-22 23:52:00,76.0,72.0,30.09,NNE,19,2.0,-999.0,87,-99.99,,,-99.99,0.000000,,2013-06-23 03:52:00,